Port Clarence, Alaska
Current Conditions -  °F | °C
As of 1:58 PM on Wednesday 22 Oct 2014 (Local Time) from PATE Reporting Station
Overcast Overcast  
Wind Chill: 22°   Ceiling: 2100
Heat Index: 30°   Visibility: 10mi
Dew Point: 25°   Wind: 8mph
Humidity: 82%   Direction: 330°NNW
Pressure: 29.84"   Gusts: NA
Location:  65.26°N, 166.85°W
Report Text: PATE 222158Z AUTO 33007KT 10SM OVC021 M01/M04 A2984 RMK AO2 SLP119 T10111039 FZRANO
Loading
Personal Weather Stations






























Interactive Weather Map
Tropical Storm Tracking
New forecast layout! Learn more

10-Day Weather Forecast

Advertisements
Track Severe Weather on mobile